sensor_id;sensor_type;location;lat;lon;timestamp;temperature;humidity
26599;DHT22;14240;51.064;16.612;2022-12-07T00:01:28;3.70;99.90
26599;DHT22;14240;51.064;16.612;2022-12-07T00:03:55;3.70;99.90
26599;DHT22;14240;51.064;16.612;2022-12-07T00:06:42;3.70;99.90
26599;DHT22;14240;51.064;16.612;2022-12-07T00:09:11;3.60;99.90
26599;DHT22;14240;51.064;16.612;2022-12-07T00:11:37;3.60;99.90
26599;DHT22;14240;51.064;16.612;2022-12-07T00:14:07;3.60;99.90
26599;DHT22;14240;51.064;16.612;2022-12-07T00:16:34;3.60;99.90
26599;DHT22;14240;51.064;16.612;2022-12-07T00:19:00;3.60;99.90
26599;DHT22;14240;51.064;16.612;2022-12-07T00:21:32;3.60;99.90
26599;DHT22;14240;51.064;16.612;2022-12-07T00:23:58;3.60;99.90
26599;DHT22;14240;51.064;16.612;2022-12-07T00:26:35;3.60;99.90
26599;DHT22;14240;51.064;16.612;2022-12-07T00:29:21;3.60;99.90
26599;DHT22;14240;51.064;16.612;2022-12-07T00:31:47;3.50;99.90
26599;DHT22;14240;51.064;16.612;2022-12-07T00:34:18;3.50;99.90
26599;DHT22;14240;51.064;16.612;2022-12-07T00:36:45;3.50;99.90
26599;DHT22;14240;51.064;16.612;2022-12-07T00:39:11;3.40;99.90
26599;DHT22;14240;51.064;16.612;2022-12-07T00:41:36;3.50;99.90
26599;DHT22;14240;51.064;16.612;2022-12-07T00:44:02;3.40;99.90
26599;DHT22;14240;51.064;16.612;2022-12-07T00:46:29;3.40;99.90
26599;DHT22;14240;51.064;16.612;2022-12-07T00:48:55;3.50;99.90
26599;DHT22;14240;51.064;16.612;2022-12-07T00:51:23;3.50;99.90
26599;DHT22;14240;51.064;16.612;2022-12-07T00:53:49;3.50;99.90
26599;DHT22;14240;51.064;16.612;2022-12-07T00:56:24;3.50;99.90
26599;DHT22;14240;51.064;16.612;2022-12-07T00:59:03;3.50;99.90
26599;DHT22;14240;51.064;16.612;2022-12-07T01:01:33;3.50;99.90
26599;DHT22;14240;51.064;16.612;2022-12-07T01:03:59;3.40;99.90
26599;DHT22;14240;51.064;16.612;2022-12-07T01:06:27;3.40;99.90
26599;DHT22;14240;51.064;16.612;2022-12-07T01:08:53;3.40;99.90
26599;DHT22;14240;51.064;16.612;2022-12-07T01:11:22;3.40;99.90
26599;DHT22;14240;51.064;16.612;2022-12-07T01:13:50;3.40;99.90
26599;DHT22;14240;51.064;16.612;2022-12-07T01:16:17;3.40;99.90
26599;DHT22;14240;51.064;16.612;2022-12-07T01:18:46;3.30;99.90
26599;DHT22;14240;51.064;16.612;2022-12-07T01:21:21;3.30;99.90
26599;DHT22;14240;51.064;16.612;2022-12-07T01:23:47;3.30;99.90
26599;DHT22;14240;51.064;16.612;2022-12-07T01:26:16;3.30;99.90
26599;DHT22;14240;51.064;16.612;2022-12-07T01:28:42;3.30;99.90
26599;DHT22;14240;51.064;16.612;2022-12-07T01:31:11;3.30;99.90
26599;DHT22;14240;51.064;16.612;2022-12-07T01:33:37;3.30;99.90
26599;DHT22;14240;51.064;16.612;2022-12-07T01:36:08;3.30;99.90
26599;DHT22;14240;51.064;16.612;2022-12-07T01:38:38;3.30;99.90
26599;DHT22;14240;51.064;16.612;2022-12-07T01:41:03;3.30;99.90
26599;DHT22;14240;51.064;16.612;2022-12-07T01:43:32;3.30;99.90
26599;DHT22;14240;51.064;16.612;2022-12-07T01:45:58;3.30;99.90
26599;DHT22;14240;51.064;16.612;2022-12-07T01:48:44;3.30;99.90
26599;DHT22;14240;51.064;16.612;2022-12-07T01:51:11;3.30;99.90
26599;DHT22;14240;51.064;16.612;2022-12-07T01:53:43;3.20;99.90
26599;DHT22;14240;51.064;16.612;2022-12-07T01:56:12;3.20;99.90
26599;DHT22;14240;51.064;16.612;2022-12-07T01:58:38;3.20;99.90
26599;DHT22;14240;51.064;16.612;2022-12-07T02:01:04;3.20;99.90
26599;DHT22;14240;51.064;16.612;2022-12-07T02:03:42;3.20;99.90
26599;DHT22;14240;51.064;16.612;2022-12-07T02:06:10;3.20;99.90
26599;DHT22;14240;51.064;16.612;2022-12-07T02:08:37;3.20;99.90
26599;DHT22;14240;51.064;16.612;2022-12-07T02:11:04;3.20;99.90
26599;DHT22;14240;51.064;16.612;2022-12-07T02:13:32;3.20;99.90
26599;DHT22;14240;51.064;16.612;2022-12-07T02:19:27;3.20;99.90
26599;DHT22;14240;51.064;16.612;2022-12-07T02:22:01;3.20;99.90
26599;DHT22;14240;51.064;16.612;2022-12-07T02:27:37;3.10;99.90
26599;DHT22;14240;51.064;16.612;2022-12-07T02:35:20;3.20;99.90
26599;DHT22;14240;51.064;16.612;2022-12-07T02:40:29;3.20;99.90
26599;DHT22;14240;51.064;16.612;2022-12-07T02:43:06;3.20;99.90
26599;DHT22;14240;51.064;16.612;2022-12-07T02:45:35;3.20;99.90
26599;DHT22;14240;51.064;16.612;2022-12-07T02:48:02;3.20;99.90
26599;DHT22;14240;51.064;16.612;2022-12-07T02:50:29;3.20;99.90
26599;DHT22;14240;51.064;16.612;2022-12-07T02:52:55;3.20;99.90
26599;DHT22;14240;51.064;16.612;2022-12-07T02:55:26;3.20;99.90
26599;DHT22;14240;51.064;16.612;2022-12-07T02:57:55;3.20;99.90
26599;DHT22;14240;51.064;16.612;2022-12-07T03:00:23;3.20;99.90
26599;DHT22;14240;51.064;16.612;2022-12-07T03:02:59;3.20;99.90
26599;DHT22;14240;51.064;16.612;2022-12-07T03:18:38;3.20;99.90
26599;DHT22;14240;51.064;16.612;2022-12-07T03:21:10;3.20;99.90
26599;DHT22;14240;51.064;16.612;2022-12-07T03:23:38;3.10;99.90
26599;DHT22;14240;51.064;16.612;2022-12-07T03:26:05;3.20;99.90
26599;DHT22;14240;51.064;16.612;2022-12-07T03:28:34;3.20;99.90
26599;DHT22;14240;51.064;16.612;2022-12-07T03:31:18;3.20;99.90
26599;DHT22;14240;51.064;16.612;2022-12-07T03:36:32;3.20;99.90
26599;DHT22;14240;51.064;16.612;2022-12-07T03:39:08;3.30;99.90
26599;DHT22;14240;51.064;16.612;2022-12-07T03:41:37;3.20;99.90
26599;DHT22;14240;51.064;16.612;2022-12-07T03:44:05;3.20;99.90
26599;DHT22;14240;51.064;16.612;2022-12-07T03:49:25;3.30;99.90
26599;DHT22;14240;51.064;16.612;2022-12-07T03:54:36;3.20;99.90
26599;DHT22;14240;51.064;16.612;2022-12-07T03:57:04;3.20;99.90
26599;DHT22;14240;51.064;16.612;2022-12-07T03:59:31;3.20;99.90
26599;DHT22;14240;51.064;16.612;2022-12-07T04:02:02;3.20;99.90
26599;DHT22;14240;51.064;16.612;2022-12-07T04:04:28;3.20;99.90
26599;DHT22;14240;51.064;16.612;2022-12-07T04:06:54;3.20;99.90
26599;DHT22;14240;51.064;16.612;2022-12-07T04:09:20;3.20;99.90
26599;DHT22;14240;51.064;16.612;2022-12-07T04:11:46;3.30;99.90
26599;DHT22;14240;51.064;16.612;2022-12-07T04:14:11;3.30;99.90
26599;DHT22;14240;51.064;16.612;2022-12-07T04:16:53;3.30;99.90
26599;DHT22;14240;51.064;16.612;2022-12-07T04:19:24;3.30;99.90
26599;DHT22;14240;51.064;16.612;2022-12-07T04:21:50;3.30;99.90
26599;DHT22;14240;51.064;16.612;2022-12-07T04:24:16;3.30;99.90
26599;DHT22;14240;51.064;16.612;2022-12-07T04:26:42;3.30;99.90
26599;DHT22;14240;51.064;16.612;2022-12-07T04:29:08;3.40;99.90
26599;DHT22;14240;51.064;16.612;2022-12-07T04:31:35;3.40;99.90
26599;DHT22;14240;51.064;16.612;2022-12-07T04:34:00;3.40;99.90
26599;DHT22;14240;51.064;16.612;2022-12-07T04:36:27;3.40;99.90
26599;DHT22;14240;51.064;16.612;2022-12-07T04:38:53;3.50;99.90
26599;DHT22;14240;51.064;16.612;2022-12-07T04:41:20;3.50;99.90
26599;DHT22;14240;51.064;16.612;2022-12-07T04:43:55;3.50;99.90
26599;DHT22;14240;51.064;16.612;2022-12-07T04:46:22;3.40;99.90
26599;DHT22;14240;51.064;16.612;2022-12-07T04:48:48;3.50;99.90
26599;DHT22;14240;51.064;16.612;2022-12-07T04:51:18;3.50;99.90
26599;DHT22;14240;51.064;16.612;2022-12-07T04:53:44;3.40;99.90
26599;DHT22;14240;51.064;16.612;2022-12-07T04:56:10;3.50;99.90
26599;DHT22;14240;51.064;16.612;2022-12-07T04:58:35;3.40;99.90
26599;DHT22;14240;51.064;16.612;2022-12-07T05:01:01;3.50;99.90
26599;DHT22;14240;51.064;16.612;2022-12-07T05:03:27;3.40;99.90
26599;DHT22;14240;51.064;16.612;2022-12-07T05:05:52;3.40;99.90
26599;DHT22;14240;51.064;16.612;2022-12-07T05:08:18;3.40;99.90
26599;DHT22;14240;51.064;16.612;2022-12-07T05:10:43;3.40;99.90
26599;DHT22;14240;51.064;16.612;2022-12-07T05:13:09;3.40;99.90
26599;DHT22;14240;51.064;16.612;2022-12-07T05:15:35;3.40;99.90
26599;DHT22;14240;51.064;16.612;2022-12-07T05:18:01;3.40;99.90
26599;DHT22;14240;51.064;16.612;2022-12-07T05:20:26;3.40;99.90
26599;DHT22;14240;51.064;16.612;2022-12-07T05:22:52;3.40;99.90
26599;DHT22;14240;51.064;16.612;2022-12-07T05:25:17;3.30;99.90
26599;DHT22;14240;51.064;16.612;2022-12-07T05:27:43;3.40;99.90
26599;DHT22;14240;51.064;16.612;2022-12-07T05:30:09;3.40;99.90
26599;DHT22;14240;51.064;16.612;2022-12-07T05:32:35;3.40;99.90
26599;DHT22;14240;51.064;16.612;2022-12-07T05:35:00;3.40;99.90
26599;DHT22;14240;51.064;16.612;2022-12-07T05:37:26;3.40;99.90
26599;DHT22;14240;51.064;16.612;2022-12-07T05:39:51;3.40;99.90
26599;DHT22;14240;51.064;16.612;2022-12-07T05:42:17;3.40;99.90
26599;DHT22;14240;51.064;16.612;2022-12-07T05:44:44;3.40;99.90
26599;DHT22;14240;51.064;16.612;2022-12-07T05:47:11;3.40;99.90
26599;DHT22;14240;51.064;16.612;2022-12-07T05:49:36;3.40;99.90
26599;DHT22;14240;51.064;16.612;2022-12-07T05:52:03;3.50;99.90
26599;DHT22;14240;51.064;16.612;2022-12-07T05:54:29;3.40;99.90
26599;DHT22;14240;51.064;16.612;2022-12-07T05:56:55;3.40;99.90
26599;DHT22;14240;51.064;16.612;2022-12-07T05:59:20;3.40;99.90
26599;DHT22;14240;51.064;16.612;2022-12-07T06:04:16;3.40;99.90
26599;DHT22;14240;51.064;16.612;2022-12-07T06:06:41;3.40;99.90
26599;DHT22;14240;51.064;16.612;2022-12-07T06:09:07;3.40;99.90
26599;DHT22;14240;51.064;16.612;2022-12-07T06:11:33;3.40;99.90
26599;DHT22;14240;51.064;16.612;2022-12-07T06:14:17;3.40;99.90
26599;DHT22;14240;51.064;16.612;2022-12-07T06:16:43;3.40;99.90
26599;DHT22;14240;51.064;16.612;2022-12-07T06:19:08;3.40;99.90
26599;DHT22;14240;51.064;16.612;2022-12-07T06:21:34;3.40;99.90
26599;DHT22;14240;51.064;16.612;2022-12-07T06:24:00;3.40;99.90
26599;DHT22;14240;51.064;16.612;2022-12-07T06:26:25;3.40;99.90
26599;DHT22;14240;51.064;16.612;2022-12-07T06:28:51;3.40;99.90
26599;DHT22;14240;51.064;16.612;2022-12-07T06:31:17;3.40;99.90
26599;DHT22;14240;51.064;16.612;2022-12-07T06:33:42;3.40;99.90
26599;DHT22;14240;51.064;16.612;2022-12-07T06:36:09;3.30;99.90
26599;DHT22;14240;51.064;16.612;2022-12-07T06:38:35;3.30;99.90
26599;DHT22;14240;51.064;16.612;2022-12-07T06:41:01;3.40;99.90
26599;DHT22;14240;51.064;16.612;2022-12-07T06:43:26;3.30;99.90
26599;DHT22;14240;51.064;16.612;2022-12-07T06:45:52;3.30;99.90
26599;DHT22;14240;51.064;16.612;2022-12-07T06:48:18;3.30;99.90
26599;DHT22;14240;51.064;16.612;2022-12-07T06:50:47;3.40;99.90
26599;DHT22;14240;51.064;16.612;2022-12-07T06:53:13;3.30;99.90
26599;DHT22;14240;51.064;16.612;2022-12-07T06:55:39;3.40;99.90
26599;DHT22;14240;51.064;16.612;2022-12-07T06:58:05;3.40;99.90
26599;DHT22;14240;51.064;16.612;2022-12-07T07:00:30;3.30;99.90
26599;DHT22;14240;51.064;16.612;2022-12-07T07:02:56;3.30;99.90
26599;DHT22;14240;51.064;16.612;2022-12-07T07:05:22;3.30;99.90
26599;DHT22;14240;51.064;16.612;2022-12-07T07:07:49;3.30;99.90
26599;DHT22;14240;51.064;16.612;2022-12-07T07:10:14;3.30;99.90
26599;DHT22;14240;51.064;16.612;2022-12-07T07:12:40;3.30;99.90
26599;DHT22;14240;51.064;16.612;2022-12-07T07:15:06;3.30;99.90
26599;DHT22;14240;51.064;16.612;2022-12-07T07:17:32;3.30;99.90
26599;DHT22;14240;51.064;16.612;2022-12-07T07:19:58;3.30;99.90
26599;DHT22;14240;51.064;16.612;2022-12-07T07:22:23;3.30;99.90
26599;DHT22;14240;51.064;16.612;2022-12-07T07:24:49;3.40;99.90
26599;DHT22;14240;51.064;16.612;2022-12-07T07:27:14;3.40;99.90
26599;DHT22;14240;51.064;16.612;2022-12-07T07:29:40;3.50;99.90
26599;DHT22;14240;51.064;16.612;2022-12-07T07:32:05;3.50;99.90
26599;DHT22;14240;51.064;16.612;2022-12-07T07:34:33;3.50;99.90
26599;DHT22;14240;51.064;16.612;2022-12-07T07:36:58;3.60;99.90
26599;DHT22;14240;51.064;16.612;2022-12-07T07:39:24;3.60;99.90
26599;DHT22;14240;51.064;16.612;2022-12-07T07:41:49;3.70;99.90
26599;DHT22;14240;51.064;16.612;2022-12-07T07:44:15;4.00;99.90
26599;DHT22;14240;51.064;16.612;2022-12-07T07:46:40;4.40;99.90
26599;DHT22;14240;51.064;16.612;2022-12-07T07:49:06;4.70;99.90
26599;DHT22;14240;51.064;16.612;2022-12-07T07:51:32;4.90;99.90
26599;DHT22;14240;51.064;16.612;2022-12-07T07:53:57;4.90;99.90
26599;DHT22;14240;51.064;16.612;2022-12-07T07:56:23;4.90;99.90
26599;DHT22;14240;51.064;16.612;2022-12-07T07:58:52;4.80;99.90
26599;DHT22;14240;51.064;16.612;2022-12-07T08:01:17;4.70;99.90
26599;DHT22;14240;51.064;16.612;2022-12-07T08:03:45;4.70;99.90
26599;DHT22;14240;51.064;16.612;2022-12-07T08:06:11;4.60;99.90
26599;DHT22;14240;51.064;16.612;2022-12-07T08:08:37;4.70;99.90
26599;DHT22;14240;51.064;16.612;2022-12-07T08:11:05;4.70;99.90
26599;DHT22;14240;51.064;16.612;2022-12-07T08:13:31;4.70;99.90
26599;DHT22;14240;51.064;16.612;2022-12-07T08:15:57;4.80;99.90
26599;DHT22;14240;51.064;16.612;2022-12-07T08:18:23;4.90;99.90
26599;DHT22;14240;51.064;16.612;2022-12-07T08:20:48;5.10;99.90
26599;DHT22;14240;51.064;16.612;2022-12-07T08:23:14;5.30;99.90
26599;DHT22;14240;51.064;16.612;2022-12-07T08:25:39;5.40;99.90
26599;DHT22;14240;51.064;16.612;2022-12-07T08:28:06;5.40;99.90
26599;DHT22;14240;51.064;16.612;2022-12-07T08:30:32;5.40;99.90
26599;DHT22;14240;51.064;16.612;2022-12-07T08:32:57;5.50;99.90
26599;DHT22;14240;51.064;16.612;2022-12-07T08:35:23;5.50;99.90
26599;DHT22;14240;51.064;16.612;2022-12-07T08:37:49;5.50;99.90
26599;DHT22;14240;51.064;16.612;2022-12-07T08:40:15;5.50;99.90
26599;DHT22;14240;51.064;16.612;2022-12-07T08:42:42;5.60;99.90
26599;DHT22;14240;51.064;16.612;2022-12-07T08:45:12;5.60;99.90
26599;DHT22;14240;51.064;16.612;2022-12-07T08:47:42;5.80;99.90
26599;DHT22;14240;51.064;16.612;2022-12-07T08:50:10;6.40;99.90
26599;DHT22;14240;51.064;16.612;2022-12-07T08:52:37;7.40;99.90
26599;DHT22;14240;51.064;16.612;2022-12-07T08:55:03;8.20;99.90
26599;DHT22;14240;51.064;16.612;2022-12-07T08:57:30;8.60;99.90
26599;DHT22;14240;51.064;16.612;2022-12-07T08:59:57;8.70;99.90
26599;DHT22;14240;51.064;16.612;2022-12-07T09:02:23;8.70;99.90
26599;DHT22;14240;51.064;16.612;2022-12-07T09:04:49;8.60;99.90
26599;DHT22;14240;51.064;16.612;2022-12-07T09:07:14;8.50;99.90
26599;DHT22;14240;51.064;16.612;2022-12-07T09:09:40;8.40;99.90
26599;DHT22;14240;51.064;16.612;2022-12-07T09:12:06;8.30;99.90
26599;DHT22;14240;51.064;16.612;2022-12-07T09:14:31;8.10;99.90
26599;DHT22;14240;51.064;16.612;2022-12-07T09:17:08;8.00;99.90
26599;DHT22;14240;51.064;16.612;2022-12-07T09:19:35;7.80;99.90
26599;DHT22;14240;51.064;16.612;2022-12-07T09:22:00;7.70;99.90
26599;DHT22;14240;51.064;16.612;2022-12-07T09:24:26;7.60;99.90
26599;DHT22;14240;51.064;16.612;2022-12-07T09:26:52;7.40;99.90
26599;DHT22;14240;51.064;16.612;2022-12-07T09:29:18;7.30;99.90
26599;DHT22;14240;51.064;16.612;2022-12-07T09:31:43;7.20;99.90
26599;DHT22;14240;51.064;16.612;2022-12-07T09:34:09;7.10;99.90
26599;DHT22;14240;51.064;16.612;2022-12-07T09:36:35;7.00;99.90
26599;DHT22;14240;51.064;16.612;2022-12-07T09:39:00;6.90;99.90
26599;DHT22;14240;51.064;16.612;2022-12-07T09:41:27;7.00;99.90
26599;DHT22;14240;51.064;16.612;2022-12-07T09:44:02;7.20;99.90
26599;DHT22;14240;51.064;16.612;2022-12-07T09:46:29;7.30;99.90
26599;DHT22;14240;51.064;16.612;2022-12-07T09:48:58;7.20;99.90
26599;DHT22;14240;51.064;16.612;2022-12-07T09:51:24;7.10;99.90
26599;DHT22;14240;51.064;16.612;2022-12-07T09:53:51;7.00;99.90
26599;DHT22;14240;51.064;16.612;2022-12-07T09:56:18;6.90;99.90
26599;DHT22;14240;51.064;16.612;2022-12-07T09:58:44;6.80;99.90
26599;DHT22;14240;51.064;16.612;2022-12-07T10:01:12;6.70;99.90
26599;DHT22;14240;51.064;16.612;2022-12-07T10:03:40;6.70;99.90
26599;DHT22;14240;51.064;16.612;2022-12-07T10:06:11;6.60;99.90
26599;DHT22;14240;51.064;16.612;2022-12-07T10:08:38;6.60;99.90
26599;DHT22;14240;51.064;16.612;2022-12-07T10:11:03;6.50;99.90
26599;DHT22;14240;51.064;16.612;2022-12-07T10:13:39;6.50;99.90
26599;DHT22;14240;51.064;16.612;2022-12-07T10:16:16;6.40;99.90
26599;DHT22;14240;51.064;16.612;2022-12-07T10:18:53;6.30;99.90
26599;DHT22;14240;51.064;16.612;2022-12-07T10:21:21;6.20;99.90
26599;DHT22;14240;51.064;16.612;2022-12-07T10:24:05;6.20;99.90
26599;DHT22;14240;51.064;16.612;2022-12-07T10:26:35;6.10;99.90
26599;DHT22;14240;51.064;16.612;2022-12-07T10:31:57;5.90;99.90
26599;DHT22;14240;51.064;16.612;2022-12-07T10:34:24;5.80;99.90
26599;DHT22;14240;51.064;16.612;2022-12-07T10:36:51;5.70;99.90
26599;DHT22;14240;51.064;16.612;2022-12-07T10:39:18;5.60;99.90
26599;DHT22;14240;51.064;16.612;2022-12-07T10:41:53;5.50;99.90
26599;DHT22;14240;51.064;16.612;2022-12-07T10:44:23;5.40;99.90
26599;DHT22;14240;51.064;16.612;2022-12-07T11:00:37;5.10;99.90
26599;DHT22;14240;51.064;16.612;2022-12-07T11:03:32;5.10;99.90
26599;DHT22;14240;51.064;16.612;2022-12-07T11:06:16;5.10;99.90
26599;DHT22;14240;51.064;16.612;2022-12-07T11:08:58;5.10;99.90
26599;DHT22;14240;51.064;16.612;2022-12-07T11:11:38;5.00;99.90
26599;DHT22;14240;51.064;16.612;2022-12-07T11:14:14;5.00;99.90
26599;DHT22;14240;51.064;16.612;2022-12-07T11:19:22;5.00;99.90
26599;DHT22;14240;51.064;16.612;2022-12-07T11:21:58;5.00;99.90
26599;DHT22;14240;51.064;16.612;2022-12-07T11:24:32;5.00;99.90
26599;DHT22;14240;51.064;16.612;2022-12-07T11:38:01;5.00;99.90
26599;DHT22;14240;51.064;16.612;2022-12-07T11:40:36;5.00;99.90
26599;DHT22;14240;51.064;16.612;2022-12-07T11:43:25;5.00;99.90
26599;DHT22;14240;51.064;16.612;2022-12-07T11:48:37;5.00;99.90
26599;DHT22;14240;51.064;16.612;2022-12-07T11:51:07;5.00;99.90
26599;DHT22;14240;51.064;16.612;2022-12-07T11:53:41;5.00;99.90
26599;DHT22;14240;51.064;16.612;2022-12-07T11:56:12;5.00;99.90
26599;DHT22;14240;51.064;16.612;2022-12-07T11:59:12;5.00;99.90
26599;DHT22;14240;51.064;16.612;2022-12-07T12:06:40;5.30;99.90
26599;DHT22;14240;51.064;16.612;2022-12-07T12:09:13;5.00;99.90
26599;DHT22;14240;51.064;16.612;2022-12-07T12:12:16;5.00;99.90
26599;DHT22;14240;51.064;16.612;2022-12-07T12:17:49;4.90;99.90
26599;DHT22;14240;51.064;16.612;2022-12-07T12:20:23;4.90;99.90
26599;DHT22;14240;51.064;16.612;2022-12-07T12:23:21;4.90;99.90
26599;DHT22;14240;51.064;16.612;2022-12-07T12:25:53;4.90;99.90
26599;DHT22;14240;51.064;16.612;2022-12-07T12:31:09;4.90;99.90
26599;DHT22;14240;51.064;16.612;2022-12-07T12:33:35;4.90;99.90
26599;DHT22;14240;51.064;16.612;2022-12-07T12:36:19;4.90;99.90
26599;DHT22;14240;51.064;16.612;2022-12-07T12:46:59;4.90;99.90
26599;DHT22;14240;51.064;16.612;2022-12-07T12:51:58;4.90;99.90
26599;DHT22;14240;51.064;16.612;2022-12-07T12:54:26;4.90;99.90
26599;DHT22;14240;51.064;16.612;2022-12-07T13:15:48;4.90;99.90
26599;DHT22;14240;51.064;16.612;2022-12-07T13:21:01;4.90;99.90
26599;DHT22;14240;51.064;16.612;2022-12-07T13:31:56;4.90;99.90
26599;DHT22;14240;51.064;16.612;2022-12-07T13:37:08;4.90;99.90
26599;DHT22;14240;51.064;16.612;2022-12-07T13:39:45;4.90;99.90
26599;DHT22;14240;51.064;16.612;2022-12-07T13:42:23;4.90;99.90
26599;DHT22;14240;51.064;16.612;2022-12-07T13:44:50;4.90;99.90
26599;DHT22;14240;51.064;16.612;2022-12-07T13:49:56;5.00;99.90
26599;DHT22;14240;51.064;16.612;2022-12-07T13:52:26;4.90;99.90
26599;DHT22;14240;51.064;16.612;2022-12-07T13:57:25;4.90;99.90
26599;DHT22;14240;51.064;16.612;2022-12-07T13:59:52;4.90;99.90
26599;DHT22;14240;51.064;16.612;2022-12-07T14:04:49;4.90;99.90
26599;DHT22;14240;51.064;16.612;2022-12-07T14:07:27;4.80;99.90
26599;DHT22;14240;51.064;16.612;2022-12-07T14:10:01;4.90;99.90
26599;DHT22;14240;51.064;16.612;2022-12-07T14:12:29;4.90;99.90
26599;DHT22;14240;51.064;16.612;2022-12-07T14:14:56;4.80;99.90
26599;DHT22;14240;51.064;16.612;2022-12-07T14:17:24;4.90;99.90
26599;DHT22;14240;51.064;16.612;2022-12-07T14:22:34;4.80;99.90
26599;DHT22;14240;51.064;16.612;2022-12-07T14:25:20;4.80;99.90
26599;DHT22;14240;51.064;16.612;2022-12-07T14:27:56;4.80;99.90
26599;DHT22;14240;51.064;16.612;2022-12-07T14:30:33;4.70;99.90
26599;DHT22;14240;51.064;16.612;2022-12-07T14:33:03;4.70;99.90
26599;DHT22;14240;51.064;16.612;2022-12-07T14:35:31;4.70;99.90
26599;DHT22;14240;51.064;16.612;2022-12-07T14:37:57;4.70;99.90
26599;DHT22;14240;51.064;16.612;2022-12-07T14:40:25;4.60;99.90
26599;DHT22;14240;51.064;16.612;2022-12-07T14:43:04;4.60;99.90
26599;DHT22;14240;51.064;16.612;2022-12-07T14:45:31;4.60;99.90
26599;DHT22;14240;51.064;16.612;2022-12-07T14:47:56;4.50;99.90
26599;DHT22;14240;51.064;16.612;2022-12-07T14:50:22;4.50;99.90
26599;DHT22;14240;51.064;16.612;2022-12-07T14:52:55;4.50;99.90
26599;DHT22;14240;51.064;16.612;2022-12-07T14:55:26;4.50;99.90
26599;DHT22;14240;51.064;16.612;2022-12-07T14:57:52;4.40;99.90
26599;DHT22;14240;51.064;16.612;2022-12-07T15:00:19;4.40;99.90
26599;DHT22;14240;51.064;16.612;2022-12-07T15:02:46;4.40;99.90
26599;DHT22;14240;51.064;16.612;2022-12-07T15:05:12;4.50;99.90
26599;DHT22;14240;51.064;16.612;2022-12-07T15:07:39;4.40;99.90
26599;DHT22;14240;51.064;16.612;2022-12-07T15:10:08;4.40;99.90
26599;DHT22;14240;51.064;16.612;2022-12-07T15:12:39;4.40;99.90
26599;DHT22;14240;51.064;16.612;2022-12-07T15:15:05;4.40;99.90
26599;DHT22;14240;51.064;16.612;2022-12-07T15:17:30;4.40;99.90
26599;DHT22;14240;51.064;16.612;2022-12-07T15:19:56;4.40;99.90
26599;DHT22;14240;51.064;16.612;2022-12-07T15:22:22;4.30;99.90
26599;DHT22;14240;51.064;16.612;2022-12-07T15:24:47;4.30;99.90
26599;DHT22;14240;51.064;16.612;2022-12-07T15:27:13;4.40;99.90
26599;DHT22;14240;51.064;16.612;2022-12-07T15:29:38;4.30;99.90
26599;DHT22;14240;51.064;16.612;2022-12-07T15:32:04;4.30;99.90
26599;DHT22;14240;51.064;16.612;2022-12-07T15:34:30;4.30;99.90
26599;DHT22;14240;51.064;16.612;2022-12-07T15:36:57;4.30;99.90
26599;DHT22;14240;51.064;16.612;2022-12-07T15:39:22;4.30;99.90
26599;DHT22;14240;51.064;16.612;2022-12-07T15:41:48;4.30;99.90
26599;DHT22;14240;51.064;16.612;2022-12-07T15:44:14;4.30;99.90
26599;DHT22;14240;51.064;16.612;2022-12-07T15:46:58;4.30;99.90
26599;DHT22;14240;51.064;16.612;2022-12-07T15:49:24;4.30;99.90
26599;DHT22;14240;51.064;16.612;2022-12-07T15:51:50;4.20;99.90
26599;DHT22;14240;51.064;16.612;2022-12-07T15:54:26;4.20;99.90
26599;DHT22;14240;51.064;16.612;2022-12-07T15:56:53;4.20;99.90
26599;DHT22;14240;51.064;16.612;2022-12-07T15:59:19;4.20;99.90
26599;DHT22;14240;51.064;16.612;2022-12-07T16:01:45;4.10;99.90
26599;DHT22;14240;51.064;16.612;2022-12-07T16:04:11;4.10;99.90
26599;DHT22;14240;51.064;16.612;2022-12-07T16:06:36;4.00;99.90
26599;DHT22;14240;51.064;16.612;2022-12-07T16:09:02;4.00;99.90
26599;DHT22;14240;51.064;16.612;2022-12-07T16:11:28;4.00;99.90
26599;DHT22;14240;51.064;16.612;2022-12-07T16:13:54;3.90;99.90
26599;DHT22;14240;51.064;16.612;2022-12-07T16:16:20;3.80;99.90
26599;DHT22;14240;51.064;16.612;2022-12-07T16:18:47;3.80;99.90
26599;DHT22;14240;51.064;16.612;2022-12-07T16:21:14;3.70;99.90
26599;DHT22;14240;51.064;16.612;2022-12-07T16:23:40;3.70;99.90
26599;DHT22;14240;51.064;16.612;2022-12-07T16:26:06;3.60;99.90
26599;DHT22;14240;51.064;16.612;2022-12-07T16:28:32;3.60;99.90
26599;DHT22;14240;51.064;16.612;2022-12-07T16:31:06;4.10;99.90
26599;DHT22;14240;51.064;16.612;2022-12-07T16:33:34;3.60;99.90
26599;DHT22;14240;51.064;16.612;2022-12-07T16:36:01;3.50;99.90
26599;DHT22;14240;51.064;16.612;2022-12-07T16:38:27;3.50;99.90
26599;DHT22;14240;51.064;16.612;2022-12-07T16:40:53;3.50;99.90
26599;DHT22;14240;51.064;16.612;2022-12-07T16:43:19;3.50;99.90
26599;DHT22;14240;51.064;16.612;2022-12-07T16:45:46;3.40;99.90
26599;DHT22;14240;51.064;16.612;2022-12-07T16:48:13;3.50;99.90
26599;DHT22;14240;51.064;16.612;2022-12-07T16:50:39;3.40;99.90
26599;DHT22;14240;51.064;16.612;2022-12-07T16:53:07;3.40;99.90
26599;DHT22;14240;51.064;16.612;2022-12-07T16:55:44;3.40;99.90
26599;DHT22;14240;51.064;16.612;2022-12-07T16:58:11;3.30;99.90
26599;DHT22;14240;51.064;16.612;2022-12-07T17:00:38;3.30;99.90
26599;DHT22;14240;51.064;16.612;2022-12-07T17:03:04;3.30;99.90
26599;DHT22;14240;51.064;16.612;2022-12-07T17:05:29;3.30;99.90
26599;DHT22;14240;51.064;16.612;2022-12-07T17:07:56;3.30;99.90
26599;DHT22;14240;51.064;16.612;2022-12-07T17:10:23;3.20;99.90
26599;DHT22;14240;51.064;16.612;2022-12-07T17:12:49;3.10;99.90
26599;DHT22;14240;51.064;16.612;2022-12-07T17:15:15;3.10;99.90
26599;DHT22;14240;51.064;16.612;2022-12-07T17:17:57;3.10;99.90
26599;DHT22;14240;51.064;16.612;2022-12-07T17:20:25;3.00;99.90
26599;DHT22;14240;51.064;16.612;2022-12-07T17:22:51;3.00;99.90
26599;DHT22;14240;51.064;16.612;2022-12-07T17:25:17;2.90;99.90
26599;DHT22;14240;51.064;16.612;2022-12-07T17:27:44;2.90;99.90
26599;DHT22;14240;51.064;16.612;2022-12-07T17:30:11;2.90;99.90
26599;DHT22;14240;51.064;16.612;2022-12-07T17:32:37;2.80;99.90
26599;DHT22;14240;51.064;16.612;2022-12-07T17:35:04;2.80;99.90
26599;DHT22;14240;51.064;16.612;2022-12-07T17:37:31;2.70;99.90
26599;DHT22;14240;51.064;16.612;2022-12-07T17:39:57;2.80;99.90
26599;DHT22;14240;51.064;16.612;2022-12-07T17:42:24;2.70;99.90
26599;DHT22;14240;51.064;16.612;2022-12-07T17:45:09;2.70;99.90
26599;DHT22;14240;51.064;16.612;2022-12-07T17:47:36;2.70;99.90
26599;DHT22;14240;51.064;16.612;2022-12-07T17:50:04;2.60;99.90
26599;DHT22;14240;51.064;16.612;2022-12-07T17:52:30;2.60;99.90
26599;DHT22;14240;51.064;16.612;2022-12-07T17:55:14;2.70;99.90